Time;durP1;ratioP1;P1;durP2;ratioP2;P2;SDS_P1;SDS_P2;PMS_P1;PMS_P2;Temp;Humidity;BMP_temperature;BMP_pressure;BME280_temperature;BME280_humidity;BME280_pressure;Samples;Min_cycle;Max_cycle;Signal;HPM_P1;HPM_P2
2021/09/27 00:01:05;;;;;;;19.40;11.93;;;15.90;99.90;;;14.78;100.00;101213.03;5019721;28;20044;-76
2021/09/27 00:03:32;;;;;;;19.25;12.60;;;15.90;99.90;;;14.65;100.00;101199.59;4995540;28;20029;-76
2021/09/27 00:05:59;;;;;;;19.70;12.13;;;15.90;99.90;;;14.68;100.00;101220.63;4982995;28;20030;-76
2021/09/27 00:08:26;;;;;;;18.15;12.82;;;15.80;99.90;;;14.67;100.00;101208.31;4995251;28;20022;-76
2021/09/27 00:11:18;;;;;;;19.83;12.90;;;15.80;99.90;;;14.63;100.00;101179.44;4995299;28;20107;-76
2021/09/27 00:13:50;;;;;;;20.05;12.13;;;15.80;99.90;;;14.64;100.00;101189.09;4990391;28;20029;-76
2021/09/27 00:16:17;;;;;;;21.08;12.75;;;15.80;99.90;;;14.62;100.00;101183.88;4976684;28;20030;-76
2021/09/27 00:18:43;;;;;;;21.70;12.35;;;15.80;99.90;;;14.74;100.00;101214.97;4994465;28;20068;-76
2021/09/27 00:21:27;;;;;;;18.35;12.23;;;15.80;99.90;;;14.70;100.00;101197.53;4988768;28;20026;-76
2021/09/27 00:23:55;;;;;;;20.70;12.70;;;15.80;99.90;;;14.65;100.00;101180.22;5002257;28;20112;-76
2021/09/27 00:26:22;;;;;;;19.45;12.77;;;15.80;99.90;;;14.64;100.00;101173.19;5018580;28;20021;-76
2021/09/27 00:28:48;;;;;;;20.02;12.65;;;15.80;99.90;;;14.64;100.00;101165.22;5006623;28;20057;-76
2021/09/27 00:31:15;;;;;;;20.65;12.57;;;15.80;99.90;;;14.64;100.00;101171.38;4991547;28;20460;-76
2021/09/27 00:33:42;;;;;;;19.27;12.55;;;15.80;99.90;;;14.65;100.00;101165.16;4993216;28;20363;-76
2021/09/27 00:36:08;;;;;;;22.98;12.45;;;15.80;99.90;;;14.64;100.00;101159.94;5002148;28;20385;-76
2021/09/27 00:38:34;;;;;;;20.83;12.70;;;15.80;99.90;;;14.63;100.00;101171.47;5030211;28;20436;-76
2021/09/27 00:41:06;;;;;;;19.73;12.57;;;15.80;99.90;;;14.64;100.00;101163.41;5002484;28;20029;-76
2021/09/27 00:43:36;;;;;;;18.90;12.20;;;15.80;99.90;;;14.76;100.00;101159.25;4977014;28;20022;-76
2021/09/27 00:46:08;;;;;;;24.50;13.32;;;15.90;99.90;;;14.73;100.00;101143.53;5011249;28;20029;-76
2021/09/27 00:48:34;;;;;;;18.80;12.93;;;15.90;99.90;;;14.82;100.00;101150.94;5008195;28;20057;-76
2021/09/27 00:51:22;;;;;;;18.10;12.18;;;15.90;99.90;;;14.78;100.00;101130.84;4992384;28;20022;-76
2021/09/27 00:53:57;;;;;;;28.17;13.50;;;15.90;99.90;;;14.76;100.00;101136.22;5001573;28;20037;-76
2021/09/27 00:56:29;;;;;;;18.63;12.55;;;15.90;99.90;;;14.80;100.00;101131.63;4975663;28;20105;-76
2021/09/27 00:58:59;;;;;;;18.65;12.20;;;16.00;99.90;;;14.90;100.00;101140.75;4981145;28;20033;-76
2021/09/27 01:01:25;;;;;;;18.65;11.98;;;16.00;99.90;;;14.90;100.00;101127.50;5001308;28;20087;-76
2021/09/27 01:03:54;;;;;;;19.15;11.98;;;16.00;99.90;;;14.89;100.00;101130.22;5000852;28;20029;-76
2021/09/27 01:06:37;;;;;;;19.02;12.95;;;16.00;99.90;;;14.89;100.00;101127.56;4985041;28;20030;-76
2021/09/27 01:09:37;;;;;;;19.50;12.20;;;16.00;99.90;;;14.86;100.00;101128.63;4984880;28;20029;-76
2021/09/27 01:12:48;;;;;;;18.05;11.75;;;16.00;99.90;;;14.89;100.00;101117.81;5021034;28;20026;-76
2021/09/27 01:15:25;;;;;;;18.23;11.65;;;16.00;99.90;;;14.90;100.00;101111.59;5004917;28;20025;-76
2021/09/27 01:18:30;;;;;;;17.70;10.93;;;16.00;99.90;;;14.95;100.00;101112.16;5003409;28;20055;-76
2021/09/27 01:21:36;;;;;;;17.38;11.32;;;16.10;99.90;;;14.93;100.00;101090.19;4992337;28;20107;-76
2021/09/27 01:24:48;;;;;;;19.58;11.23;;;16.00;99.90;;;14.92;100.00;101091.13;5019651;28;20030;-76
2021/09/27 01:27:48;;;;;;;18.83;11.23;;;16.10;99.90;;;14.92;100.00;101084.97;4997375;28;20132;-76
2021/09/27 01:30:55;;;;;;;23.42;11.50;;;16.10;99.90;;;14.93;100.00;101082.22;5006217;28;20508;-76
2021/09/27 01:33:44;;;;;;;17.35;11.52;;;16.10;99.90;;;14.91;100.00;101068.19;4988934;28;20274;-75
2021/09/27 01:36:18;;;;;;;17.73;11.05;;;16.10;99.90;;;14.90;100.00;101065.63;4997748;28;20034;-76
2021/09/27 01:39:15;;;;;;;13.77;9.90;;;16.00;99.90;;;14.89;100.00;101069.25;4985711;28;20032;-76
2021/09/27 01:42:28;;;;;;;17.05;10.27;;;16.00;99.90;;;14.85;100.00;101060.59;5019714;28;20057;-76
2021/09/27 01:45:43;;;;;;;16.38;10.57;;;16.00;99.90;;;14.93;100.00;101068.13;5001150;28;20428;-76
2021/09/27 01:48:25;;;;;;;18.33;9.68;;;16.00;99.90;;;14.93;100.00;101055.72;4989526;28;20037;-75
2021/09/27 01:51:03;;;;;;;14.52;10.27;;;16.00;99.90;;;14.89;100.00;101053.34;5015325;28;20022;-76
2021/09/27 01:53:40;;;;;;;15.80;10.00;;;16.00;99.90;;;14.84;100.00;101060.69;4993219;28;20046;-76
2021/09/27 01:56:11;;;;;;;;;;;16.00;99.90;;;14.82;100.00;101050.19;5002490;28;20037;-76
2021/09/27 01:58:55;;;;;;;18.13;10.98;;;15.90;99.90;;;14.74;100.00;101045.34;4999815;28;19913;-76
2021/09/27 02:02:11;;;;;;;17.08;10.32;;;15.90;99.90;;;14.76;100.00;101061.16;5006751;28;20030;-76
2021/09/27 02:05:02;;;;;;;18.48;10.43;;;15.90;99.90;;;14.69;100.00;101058.03;5026523;28;20395;-76
2021/09/27 02:07:35;;;;;;;18.63;10.20;;;15.80;99.90;;;14.67;100.00;101048.47;5023010;28;20022;-76
2021/09/27 02:10:12;;;;;;;14.05;9.77;;;15.80;99.90;;;14.63;100.00;101060.19;4992513;28;20029;-76
2021/09/27 02:12:46;;;;;;;13.88;9.65;;;15.80;99.90;;;14.68;100.00;101060.75;5004756;28;20034;-76
2021/09/27 02:15:43;;;;;;;17.27;10.30;;;15.80;99.90;;;14.64;100.00;101060.06;4984173;28;20497;-76
2021/09/27 02:18:27;;;;;;;15.55;10.45;;;15.70;99.90;;;14.61;100.00;101059.41;4982574;28;20026;-76
2021/09/27 02:21:11;;;;;;;15.75;10.55;;;15.80;99.90;;;14.61;100.00;101078.81;5003238;28;20060;-76
2021/09/27 02:23:56;;;;;;;15.38;10.15;;;15.80;99.90;;;14.60;100.00;101066.50;5031688;28;20022;-75
2021/09/27 02:26:22;;;;;;;16.52;10.00;;;15.80;99.90;;;14.65;100.00;101077.69;4983803;28;20187;-76
2021/09/27 02:28:49;;;;;;;14.15;9.98;;;15.80;99.90;;;14.63;100.00;101078.72;5008967;28;20061;-76
2021/09/27 02:31:49;;;;;;;14.95;9.93;;;15.80;99.90;;;14.67;100.00;101102.31;5004374;28;20025;-76
2021/09/27 02:35:00;;;;;;;17.35;9.70;;;15.80;99.90;;;14.64;100.00;101099.81;5008944;28;20100;-76
2021/09/27 02:37:26;;;;;;;17.15;9.90;;;15.80;99.90;;;14.57;100.00;101094.03;4998188;28;20030;-76
2021/09/27 02:40:03;;;;;;;17.38;10.20;;;15.70;99.90;;;14.54;100.00;101136.56;5008153;28;20034;-75
2021/09/27 02:42:53;;;;;;;15.43;9.60;;;15.70;99.90;;;14.53;100.00;101129.56;4992312;28;20161;-76
2021/09/27 02:45:22;;;;;;;15.75;10.60;;;15.70;99.90;;;14.57;100.00;101125.81;5005805;28;20026;-76
2021/09/27 02:48:29;;;;;;;23.50;9.65;;;15.70;99.90;;;14.45;100.00;101107.06;4998641;28;20062;-76
2021/09/27 02:50:56;;;;;;;;;;;15.70;99.90;;;14.52;100.00;101119.06;5005568;28;20037;-76
2021/09/27 02:53:22;;;;;;;14.95;9.02;;;15.60;99.90;;;14.51;100.00;101110.25;4996961;28;20293;-76
2021/09/27 02:56:31;;;;;;;15.70;10.15;;;15.70;99.90;;;14.52;100.00;101098.72;5003835;28;20049;-76
2021/09/27 02:59:45;;;;;;;13.52;9.60;;;15.70;99.90;;;14.52;100.00;101096.06;5009151;28;20037;-76
2021/09/27 03:02:38;;;;;;;17.63;9.25;;;15.60;99.90;;;14.45;100.00;101092.06;4989142;28;20113;-76
2021/09/27 03:05:28;;;;;;;18.52;9.70;;;15.60;99.90;;;14.45;100.00;101093.84;5009760;28;20064;-76
2021/09/27 03:08:22;;;;;;;13.82;9.32;;;15.60;99.90;;;14.51;100.00;101101.44;4993012;28;20022;-76
2021/09/27 03:11:25;;;;;;;13.43;9.13;;;15.60;99.90;;;14.46;100.00;101093.75;4988104;28;20090;-76
2021/09/27 03:14:27;;;;;;;22.10;10.23;;;15.60;99.90;;;14.50;100.00;101094.44;5004121;28;20073;-76
2021/09/27 03:17:34;;;;;;;14.57;9.57;;;15.60;99.90;;;14.47;100.00;101095.47;4970282;28;20104;-76
2021/09/27 03:20:31;;;;;;;16.23;9.53;;;15.60;99.90;;;14.40;100.00;101083.50;4962888;28;20050;-75
2021/09/27 03:23:09;;;;;;;14.20;9.25;;;;;;;14.43;100.00;101086.00;5010574;28;20628;-76
2021/09/27 03:25:57;;;;;;;15.23;9.38;;;15.50;99.90;;;14.42;100.00;101065.72;5032500;28;20034;-75
2021/09/27 03:29:00;;;;;;;13.77;8.30;;;15.50;99.90;;;14.34;100.00;101066.19;5006581;28;20042;-75
2021/09/27 03:32:06;;;;;;;13.07;9.18;;;15.50;99.90;;;14.29;100.00;101070.03;5013099;28;20026;-76
2021/09/27 03:35:07;;;;;;;15.48;9.23;;;15.50;99.90;;;14.28;100.00;101060.38;4988677;28;20084;-75
2021/09/27 03:38:00;;;;;;;16.08;9.13;;;15.40;99.90;;;14.27;100.00;101087.78;4991657;28;20549;-75
2021/09/27 03:40:49;;;;;;;20.30;9.50;;;15.40;99.90;;;14.19;100.00;101066.19;4993616;28;20060;-75
2021/09/27 03:43:47;;;;;;;17.55;9.07;;;15.40;99.90;;;14.24;100.00;101056.19;5002910;28;20045;-76
2021/09/27 03:46:17;;;;;;;23.27;9.75;;;15.40;99.90;;;14.30;100.00;101061.16;4993199;28;20507;-76
2021/09/27 03:49:07;;;;;;;15.55;8.95;;;15.40;99.90;;;14.34;100.00;101049.41;5018609;28;20042;-76
2021/09/27 03:52:07;;;;;;;14.15;8.80;;;15.50;99.90;;;14.38;100.00;101053.59;4996844;28;20034;-76
2021/09/27 03:54:47;;;;;;;16.08;8.13;;;15.50;99.90;;;14.30;100.00;101039.97;5009896;28;20052;-76
2021/09/27 03:57:32;;;;;;;16.48;8.80;;;15.50;99.90;;;14.28;100.00;101033.91;5001063;28;20038;-76
2021/09/27 04:00:12;;;;;;;14.02;7.88;;;15.50;99.90;;;14.31;100.00;101029.25;5007831;28;20043;-76
2021/09/27 04:03:06;;;;;;;12.85;8.15;;;15.50;99.90;;;14.32;100.00;101024.84;5005927;28;20033;-76
2021/09/27 04:06:10;;;;;;;15.13;8.13;;;15.50;99.90;;;14.32;100.00;101016.88;4993496;28;20145;-76
2021/09/27 04:08:56;;;;;;;13.05;8.63;;;15.50;99.90;;;14.26;100.00;101002.19;4986344;28;20068;-76
2021/09/27 04:11:55;;;;;;;11.48;8.13;;;15.50;99.90;;;14.27;100.00;100995.09;5028188;28;20026;-76
2021/09/27 04:14:45;;;;;;;14.82;8.68;;;15.40;99.90;;;14.22;100.00;100994.50;4994818;28;20026;-76
2021/09/27 04:17:48;;;;;;;15.88;7.28;;;15.40;99.90;;;14.20;100.00;100991.09;4996013;28;20038;-76
2021/09/27 04:20:51;;;;;;;12.00;8.27;;;15.30;99.90;;;14.07;100.00;100994.44;4997894;28;20095;-76
2021/09/27 04:23:40;;;;;;;12.55;8.05;;;15.30;99.90;;;14.15;100.00;100994.88;5000993;28;20110;-75
2021/09/27 04:26:25;;;;;;;14.60;8.35;;;15.20;99.90;;;14.01;100.00;100978.91;4998126;28;20563;-76
2021/09/27 04:29:26;;;;;;;11.63;7.80;;;15.20;99.90;;;14.01;100.00;100976.25;5001418;28;20041;-76
2021/09/27 04:31:54;;;;;;;12.68;7.45;;;15.20;99.90;;;14.00;100.00;100979.84;5000264;28;20022;-76
2021/09/27 04:35:02;;;;;;;12.40;7.45;;;15.20;99.90;;;13.92;100.00;100969.69;5006863;28;20410;-76
2021/09/27 04:37:29;;;;;;;11.80;7.57;;;15.10;99.90;;;13.94;100.00;100974.91;5000339;28;20025;-76
2021/09/27 04:39:57;;;;;;;12.88;7.80;;;15.10;99.90;;;13.91;100.00;100961.84;4996464;28;20564;-76
2021/09/27 04:42:39;;;;;;;10.52;7.05;;;15.10;99.90;;;13.94;100.00;100969.59;4992783;28;20041;-75
2021/09/27 04:45:29;;;;;;;12.40;8.43;;;15.10;99.90;;;13.87;100.00;100957.66;5010818;28;20061;-76
2021/09/27 04:48:26;;;;;;;14.18;8.30;;;15.10;99.90;;;13.91;100.00;100960.06;4997591;28;20105;-75
2021/09/27 04:51:23;;;;;;;14.45;7.80;;;15.00;99.90;;;13.90;100.00;100960.97;4996751;28;20068;-76
2021/09/27 04:54:16;;;;;;;10.63;7.28;;;15.00;99.90;;;13.85;100.00;100955.09;5019829;28;20512;-76
2021/09/27 04:57:14;;;;;;;15.38;8.23;;;15.00;99.90;;;13.86;100.00;100961.25;4977823;28;20040;-75
2021/09/27 05:00:07;;;;;;;12.77;8.35;;;15.10;99.90;;;13.94;100.00;100884.91;5000842;28;20766;-75
2021/09/27 05:02:57;;;;;;;12.50;7.45;;;15.10;99.90;;;13.97;100.00;100958.81;4984414;28;20038;-76
2021/09/27 05:06:14;;;;;;;10.88;7.65;;;15.10;99.90;;;13.94;100.00;100959.03;5005523;28;20524;-76
2021/09/27 05:09:01;;;;;;;14.73;8.30;;;15.10;99.90;;;13.99;100.00;100962.25;4988636;28;20033;-76
2021/09/27 05:12:07;;;;;;;11.38;7.57;;;15.20;99.90;;;14.03;100.00;100960.28;4984204;28;20018;-76
2021/09/27 05:14:46;;;;;;;12.13;6.97;;;15.20;99.90;;;14.06;100.00;100966.28;5006711;28;20468;-76
2021/09/27 05:17:47;;;;;;;13.25;7.75;;;15.20;99.90;;;14.09;100.00;100973.19;4997403;28;20030;-76
2021/09/27 05:20:28;;;;;;;14.82;6.68;;;15.20;99.90;;;14.13;100.00;100962.31;5004236;28;20401;-76
2021/09/27 05:23:06;;;;;;;15.52;8.15;;;15.30;99.90;;;14.16;100.00;100955.97;4985226;28;20563;-76
2021/09/27 05:26:22;;;;;;;13.73;7.93;;;15.30;99.90;;;14.15;100.00;100962.25;4977129;28;20037;-76
2021/09/27 05:29:09;;;;;;;19.73;7.95;;;15.30;99.90;;;14.19;100.00;101011.44;4975757;28;20483;-76
2021/09/27 05:32:19;;;;;;;12.73;7.43;;;15.30;99.90;;;14.19;100.00;101026.44;5011615;28;20029;-76
2021/09/27 05:35:31;;;;;;;11.32;7.50;;;15.30;99.90;;;14.16;100.00;101022.19;5000173;28;20039;-76
2021/09/27 05:38:12;;;;;;;13.63;7.78;;;15.30;99.90;;;14.24;100.00;101008.53;5002532;28;20083;-76
2021/09/27 05:41:28;;;;;;;13.75;7.85;;;15.30;99.90;;;14.21;100.00;101019.28;4996954;28;20544;-76
2021/09/27 05:44:31;;;;;;;13.43;8.38;;;15.30;99.90;;;14.14;100.00;101024.91;4997783;28;20034;-76
2021/09/27 05:47:24;;;;;;;12.70;7.97;;;15.30;99.90;;;14.19;100.00;101026.44;5019014;28;20038;-76
2021/09/27 05:51:04;;;;;;;14.73;7.93;;;15.30;99.90;;;14.23;100.00;101030.63;4990075;28;20053;-76
2021/09/27 05:54:14;;;;;;;13.80;7.97;;;15.40;99.90;;;14.28;100.00;101034.75;4966399;28;20074;-76
2021/09/27 05:57:12;;;;;;;15.27;8.30;;;15.40;99.90;;;14.31;100.00;101028.41;4962015;28;20026;-76
2021/09/27 06:00:10;;;;;;;12.88;8.15;;;15.50;99.90;;;14.39;100.00;101017.38;4999576;28;20038;-76
2021/09/27 06:02:49;;;;;;;15.38;9.60;;;15.50;99.90;;;14.40;100.00;101006.69;4980483;28;20583;-76
2021/09/27 06:05:39;;;;;;;13.35;8.05;;;15.50;99.90;;;14.46;100.00;101019.56;5001207;28;20037;-76
2021/09/27 06:08:22;;;;;;;13.27;8.65;;;15.60;99.90;;;14.40;100.00;101011.13;4999343;28;20029;-76
2021/09/27 06:11:20;;;;;;;13.32;8.40;;;15.60;99.90;;;14.51;100.00;101014.00;4983108;28;20112;-76
2021/09/27 06:13:51;;;;;;;12.43;8.00;;;15.60;99.90;;;14.48;100.00;101022.97;4995204;28;20029;-76
2021/09/27 06:16:50;;;;;;;15.63;8.20;;;15.70;99.90;;;14.75;100.00;101019.69;5018099;28;20602;-76
2021/09/27 06:19:45;;;;;;;14.13;8.02;;;15.90;99.90;;;14.87;100.00;101007.50;5013328;28;20045;-76
2021/09/27 06:22:42;;;;;;;15.88;7.53;;;16.00;99.90;;;14.84;99.80;100995.28;4988663;28;20198;-76
2021/09/27 06:25:56;;;;;;;13.57;8.63;;;15.90;99.90;;;14.77;99.86;101001.88;4997636;28;20462;-76
2021/09/27 06:29:23;;;;;;;13.23;7.90;;;16.00;99.90;;;14.82;99.94;101012.25;5000508;28;20113;-76
2021/09/27 06:32:21;;;;;;;20.92;8.32;;;16.00;99.90;;;14.82;100.00;101010.44;4940611;28;20064;-75
2021/09/27 06:34:55;;;;;;;12.27;8.43;;;16.00;99.90;;;14.87;99.91;101005.69;5003466;28;20041;-76
2021/09/27 06:37:24;;;;;;;13.02;7.72;;;16.00;99.90;;;15.04;99.32;101019.75;4986826;28;20058;-76
2021/09/27 06:39:51;;;;;;;17.33;8.02;;;16.10;99.90;;;15.15;98.59;101019.94;5006534;28;20116;-76
2021/09/27 06:42:17;;;;;;;12.98;7.93;;;16.30;99.90;;;15.38;97.48;101029.16;5014246;28;20052;-76
2021/09/27 06:44:46;;;;;;;11.45;7.45;;;16.40;99.90;;;15.45;96.51;101025.16;4995069;28;20029;-76
2021/09/27 06:47:15;;;;;;;13.43;7.72;;;16.40;99.90;;;15.34;97.20;101022.31;5000362;28;20377;-76
2021/09/27 06:49:42;;;;;;;15.18;8.25;;;16.40;99.90;;;15.28;97.36;101017.41;4981623;28;20033;-76
2021/09/27 06:52:09;;;;;;;14.68;8.25;;;16.40;99.90;;;15.31;97.52;101025.16;4997133;28;20033;-76
2021/09/27 06:54:35;;;;;;;10.35;7.40;;;16.30;99.90;;;15.13;98.40;101024.47;4999359;28;20026;-76
2021/09/27 06:57:01;;;;;;;15.57;8.48;;;16.30;99.90;;;15.21;98.15;101021.38;5001599;28;20508;-76
2021/09/27 06:59:29;;;;;;;14.63;8.15;;;16.30;99.90;;;15.24;98.11;101018.53;4983861;28;20045;-76
2021/09/27 07:01:55;;;;;;;12.65;7.97;;;16.40;99.90;;;15.31;98.18;101026.03;4996087;28;20036;-76
2021/09/27 07:04:21;;;;;;;11.75;8.20;;;16.40;99.90;;;15.34;96.86;101009.91;5006434;28;20030;-76
2021/09/27 07:06:47;;;;;;;12.75;8.35;;;16.40;99.90;;;15.32;97.25;101008.31;4997247;28;20022;-76
2021/09/27 07:09:13;;;;;;;14.05;8.63;;;16.40;99.90;;;15.37;97.48;101007.03;4978546;28;20482;-76
2021/09/27 07:11:44;;;;;;;12.57;8.30;;;16.50;99.90;;;15.31;97.81;101007.47;4989626;28;20104;-76
2021/09/27 07:14:11;;;;;;;14.27;7.97;;;16.50;99.90;;;15.51;97.50;101016.81;5000256;28;21507;-76
2021/09/27 07:16:40;;;;;;;14.13;8.50;;;16.60;99.90;;;15.62;96.26;101021.44;4971986;28;20156;-76
2021/09/27 07:19:09;;;;;;;13.35;8.23;;;16.70;99.90;;;15.70;96.05;101005.91;4989347;28;20116;-76
2021/09/27 07:21:38;;;;;;;15.82;7.93;;;16.90;99.90;;;16.07;94.55;101014.19;4974646;28;20075;-76
2021/09/27 07:24:07;;;;;;;12.75;7.88;;;17.20;99.90;;;16.54;92.20;101023.47;4989970;28;20026;-76
2021/09/27 07:26:34;;;;;;;11.30;7.40;;;17.70;99.90;;;17.34;87.29;101063.28;4989983;28;21602;-76
2021/09/27 07:29:02;;;;;;;11.48;7.63;;;18.30;99.90;;;17.79;84.47;101090.25;4997545;28;20049;-76
2021/09/27 07:31:31;;;;;;;11.68;7.40;;;18.40;99.90;;;18.52;81.82;101127.72;5001139;28;20034;-76
2021/09/27 07:34:04;;;;;;;28.75;7.40;;;19.30;99.90;;;18.51;80.07;101081.56;4985202;28;20022;-76
2021/09/27 07:36:31;;;;;;;12.80;7.10;;;19.70;99.90;;;19.29;78.61;101122.84;5001366;28;20088;-75
2021/09/27 07:38:57;;;;;;;15.52;7.05;;;20.10;99.90;;;19.67;76.52;101140.34;5001235;28;20017;-75
2021/09/27 07:41:25;;;;;;;13.07;6.95;;;20.50;99.90;;;19.97;74.88;101142.47;5005944;28;20022;-76
2021/09/27 07:43:53;;;;;;;10.35;6.72;;;20.80;99.90;;;20.49;72.88;101150.75;5007141;28;20027;-76
2021/09/27 07:46:20;;;;;;;11.30;7.18;;;21.00;99.90;;;20.71;71.33;101157.06;5002154;28;20054;-76
2021/09/27 07:48:46;;;;;;;10.38;6.88;;;21.20;99.90;;;21.14;70.73;101167.69;4972378;28;20036;-76
2021/09/27 07:51:13;;;;;;;11.02;6.70;;;21.50;99.90;;;21.25;68.74;101135.53;4993042;28;20024;-76
2021/09/27 07:53:39;;;;;;;15.48;7.13;;;21.50;99.90;;;21.22;68.15;101135.78;4994557;28;20038;-76
2021/09/27 07:56:05;;;;;;;11.75;7.43;;;21.50;99.90;;;21.14;68.16;101129.38;4994934;28;20549;-75
2021/09/27 07:58:31;;;;;;;11.13;7.53;;;21.40;99.90;;;21.20;68.52;101123.50;4990290;28;20403;-76
2021/09/27 08:00:57;;;;;;;12.68;7.47;;;21.60;99.90;;;21.37;67.54;101133.63;4975278;28;20128;-75
2021/09/27 08:03:23;;;;;;;11.65;7.22;;;21.60;99.90;;;21.45;67.89;101130.31;4986291;28;20398;-75
2021/09/27 08:05:51;;;;;;;11.75;7.43;;;21.60;99.90;;;21.05;68.08;101096.19;5006053;28;20084;-74
2021/09/27 08:08:17;;;;;;;14.85;7.85;;;21.40;99.90;;;20.66;68.89;101070.00;5016096;28;20037;-76
2021/09/27 08:10:44;;;;;;;12.25;7.88;;;21.00;99.90;;;20.00;72.42;101152.91;4992926;28;20105;-76
2021/09/27 08:13:15;;;;;;;14.70;8.75;;;20.40;99.90;;;19.59;73.89;101132.09;5012085;28;20052;-76
2021/09/27 08:15:47;;;;;;;16.17;8.02;;;20.30;99.90;;;19.71;74.13;101130.31;5003783;28;20039;-75
2021/09/27 08:18:16;;;;;;;12.57;7.65;;;20.50;99.90;;;20.27;72.38;101171.22;5016475;28;20033;-76
2021/09/27 08:20:52;;;;;;;13.07;7.80;;;20.90;99.90;;;20.61;70.74;101173.03;4952104;28;20045;-76
2021/09/27 08:23:19;;;;;;;10.27;6.88;;;21.00;99.90;;;20.79;70.05;101173.34;5004129;28;20030;-76
2021/09/27 08:25:46;;;;;;;13.43;6.90;;;21.30;99.90;;;21.29;68.93;101195.03;5003724;28;20025;-76
2021/09/27 08:28:17;;;;;;;12.02;8.30;;;21.40;99.90;;;20.70;69.33;101113.41;4982608;28;20111;-76
2021/09/27 08:30:55;;;;;;;14.73;8.80;;;20.80;99.90;;;19.54;74.41;101067.50;5002768;28;20079;-76
2021/09/27 08:33:24;;;;;;;13.40;7.63;;;20.60;99.90;;;20.28;74.20;101122.13;4987028;28;20033;-76
2021/09/27 08:35:53;;;;;;;12.27;8.55;;;20.90;99.90;;;20.74;70.74;101133.59;5002248;28;20026;-76
2021/09/27 08:38:26;;;;;;;12.75;7.82;;;21.20;99.90;;;21.31;68.99;101152.88;4971161;28;20037;-76
2021/09/27 08:40:58;;;;;;;11.55;7.18;;;21.30;99.90;;;20.92;69.19;101114.28;5022464;28;20460;-77
2021/09/27 08:43:35;;;;;;;15.07;8.38;;;21.00;99.90;;;20.65;71.25;101094.22;4986347;28;20111;-76
2021/09/27 08:46:33;;;;;;;16.67;8.98;;;20.90;99.90;;;20.69;70.98;101084.94;5002183;28;20038;-76
2021/09/27 08:49:29;;;;;;;15.13;8.30;;;21.10;99.90;;;20.96;70.02;101095.16;5000055;28;20467;-76
2021/09/27 08:51:56;;;;;;;14.23;8.35;;;21.30;99.90;;;21.08;70.21;101099.47;4995515;28;20033;-77
2021/09/27 08:54:29;;;;;;;12.95;8.55;;;21.20;99.90;;;20.23;72.31;101035.25;4991282;28;20045;-77
2021/09/27 08:57:18;;;;;;;13.82;8.68;;;20.60;99.90;;;19.72;74.94;101034.03;5011287;28;20540;-77
2021/09/27 09:00:07;;;;;;;15.98;8.45;;;20.60;99.90;;;20.45;73.09;101086.00;5003632;28;20092;-76
2021/09/27 09:03:17;;;;;;;12.73;8.52;;;21.00;99.90;;;21.12;70.34;101101.88;4992001;28;20042;-76
2021/09/27 09:06:02;;;;;;;13.10;7.90;;;21.50;99.90;;;21.40;69.05;101121.78;4968309;28;20076;-76
2021/09/27 09:09:09;;;;;;;15.80;8.48;;;21.20;99.90;;;20.35;72.47;101038.75;4959659;28;20131;-76
2021/09/27 09:12:09;;;;;;;15.85;9.65;;;21.30;99.90;;;20.79;71.42;101068.97;4975660;28;20042;-77
2021/09/27 09:15:33;;;;;;;11.95;8.48;;;21.40;99.90;;;20.41;72.80;101023.03;4958976;28;20099;-76
2021/09/27 09:18:22;;;;;;;14.60;8.32;;;21.20;99.90;;;20.16;73.24;101012.66;4956910;28;20148;-76
2021/09/27 09:21:29;;;;;;;13.35;7.72;;;20.90;99.90;;;19.85;75.28;101002.69;4970038;28;20072;-76
2021/09/27 09:24:47;;;;;;;14.55;8.32;;;20.70;99.90;;;19.65;76.55;100998.91;4954831;28;20062;-76
2021/09/27 09:27:30;;;;;;;14.07;8.35;;;20.40;99.90;;;19.61;78.93;101007.28;4956147;28;20038;-76
2021/09/27 09:30:56;;;;;;;15.50;7.65;;;20.60;99.90;;;19.78;77.50;101003.28;4975609;28;20056;-76
2021/09/27 09:34:48;;;;;;;12.10;8.35;;;20.50;99.90;;;19.62;78.77;101006.31;4953149;28;20137;-76
2021/09/27 09:42:17;;;;;;;18.13;8.27;;;20.20;99.90;;;19.65;77.79;100982.03;4972321;28;20054;-76
2021/09/27 09:45:42;;;;;;;18.15;8.20;;;20.40;99.90;;;19.42;79.07;100968.72;5001373;28;20041;-76
2021/09/27 09:49:09;;;;;;;15.75;8.05;;;20.30;99.90;;;19.34;79.79;100956.94;4960819;28;20501;-76
2021/09/27 09:52:38;;;;;;;13.10;7.78;;;20.40;99.90;;;19.41;80.21;100955.47;4951170;28;20120;-76
2021/09/27 09:56:08;;;;;;;;;;;20.30;99.90;;;19.35;80.99;100970.19;4959989;28;20042;-76
2021/09/27 09:59:53;;;;;;;13.77;8.35;;;20.30;99.90;;;19.44;79.37;100964.09;4962975;28;20289;-76
2021/09/27 10:02:57;;;;;;;14.50;8.93;;;20.30;99.90;;;19.32;80.44;100977.56;4957266;28;20243;-76
2021/09/27 10:06:54;;;;;;;12.32;8.35;;;20.30;99.90;;;19.19;80.48;100937.66;4962660;28;20137;-76
2021/09/27 10:10:18;;;;;;;17.50;10.73;;;20.10;99.90;;;18.90;80.70;100948.81;4937263;28;20037;-76
2021/09/27 10:13:55;;;;;;;20.52;10.02;;;19.90;99.90;;;19.19;81.42;100945.66;4958362;28;20491;-76
2021/09/27 10:16:55;;;;;;;16.10;9.63;;;20.30;99.90;;;19.54;79.50;100947.31;4988444;28;20123;-76
2021/09/27 10:19:52;;;;;;;16.83;9.95;;;20.40;99.90;;;19.70;79.81;100961.19;4968287;28;20096;-76
2021/09/27 10:22:26;;;;;;;18.23;11.88;;;20.60;99.90;;;19.73;77.96;100947.56;4953128;28;21063;-76
2021/09/27 10:25:28;;;;;;;14.60;10.60;;;20.40;99.90;;;19.39;78.95;100928.03;4964807;28;20037;-76
2021/09/27 10:28:16;;;;;;;22.67;11.07;;;20.50;99.90;;;19.72;78.46;100940.53;4957155;28;20037;-76
2021/09/27 10:31:13;;;;;;;19.35;11.25;;;20.50;99.90;;;19.58;78.46;100916.72;4949732;28;20026;-76
2021/09/27 10:34:10;;;;;;;18.55;11.73;;;20.60;99.90;;;19.86;78.39;100934.03;4954943;28;21731;-76
2021/09/27 10:36:45;;;;;;;19.47;11.87;;;20.70;99.90;;;19.88;77.35;100911.56;5015936;28;20496;-76
2021/09/27 10:39:16;;;;;;;25.48;11.80;;;20.70;99.90;;;19.93;78.17;100924.53;4983070;28;20084;-76
2021/09/27 10:42:01;;;;;;;21.73;11.25;;;20.70;99.90;;;19.67;78.49;100899.94;5000344;28;20068;-77
2021/09/27 10:44:37;;;;;;;21.25;12.77;;;20.70;99.90;;;19.65;78.68;100886.72;4988293;28;20334;-77
2021/09/27 10:47:23;;;;;;;17.95;11.23;;;20.50;99.90;;;19.67;78.67;100903.47;4973659;28;20508;-76
2021/09/27 10:49:58;;;;;;;17.30;12.15;;;20.50;99.90;;;19.71;78.82;100900.56;4990439;28;20025;-76
2021/09/27 10:52:54;;;;;;;20.13;11.75;;;20.70;99.90;;;20.01;78.95;100930.09;4999014;28;20034;-76
2021/09/27 10:56:22;;;;;;;21.92;12.50;;;20.90;99.90;;;19.96;77.97;100904.75;5001653;28;20076;-76
2021/09/27 10:59:03;;;;;;;19.77;11.63;;;20.90;99.90;;;20.14;77.69;100913.88;4985263;28;20034;-76
2021/09/27 11:01:39;;;;;;;20.23;11.60;;;20.80;99.90;;;19.82;77.93;100898.69;4997780;28;20473;-76
2021/09/27 11:04:18;;;;;;;20.33;11.82;;;20.60;99.90;;;19.55;79.35;100884.94;4999438;28;20034;-76
2021/09/27 11:06:55;;;;;;;16.35;10.73;;;20.60;99.90;;;19.73;79.62;100917.31;5008937;28;20105;-76
2021/09/27 11:09:37;;;;;;;16.42;10.77;;;20.70;99.90;;;19.90;78.92;100900.75;5014012;28;20546;-76
2021/09/27 11:12:15;;;;;;;18.38;11.77;;;20.70;99.90;;;19.85;78.21;100884.25;4988200;28;20438;-76
2021/09/27 11:14:52;;;;;;;23.25;11.95;;;20.80;99.90;;;20.00;77.46;100896.34;5001429;28;20029;-77
2021/09/27 11:17:38;;;;;;;23.50;12.80;;;21.00;99.90;;;20.14;77.66;100886.31;4996554;28;20558;-76
2021/09/27 11:20:16;;;;;;;24.67;11.77;;;21.10;99.90;;;20.25;76.93;100899.59;5007040;28;20512;-76
2021/09/27 11:22:56;;;;;;;19.30;12.00;;;21.10;99.90;;;20.23;77.95;100896.22;4998540;28;20115;-76